createdAt,value
2022-10-02T00:00:14.293Z,8.00
2022-10-02T00:02:46.223Z,16.00
2022-10-02T00:07:44.425Z,1.92
2022-10-02T00:10:17.543Z,5.85
2022-10-02T00:12:47.334Z,3.20
2022-10-02T00:15:16.555Z,4.55
2022-10-02T00:17:46.967Z,1.55
2022-10-02T00:20:15.879Z,1.40
2022-10-02T00:22:51.710Z,3.15
2022-10-02T00:25:26.536Z,1.60
2022-10-02T00:28:10.327Z,2.55
2022-10-02T00:30:47.187Z,2.72
2022-10-02T00:33:23.806Z,1.35
2022-10-02T00:36:03.287Z,1.55
2022-10-02T00:38:45.094Z,1.67
2022-10-02T00:41:27.399Z,2.95
2022-10-02T00:44:12.448Z,2.35
2022-10-02T00:46:49.952Z,1.40
2022-10-02T00:49:44.948Z,2.05
2022-10-02T00:52:36.754Z,3.30
2022-10-02T00:55:30.423Z,1.88
2022-10-02T00:58:08.664Z,1.48
2022-10-02T01:00:36.820Z,1.77
2022-10-02T01:03:15.424Z,1.67
2022-10-02T01:05:42.224Z,1.60
2022-10-02T01:08:08.788Z,1.75
2022-10-02T01:10:37.674Z,1.90
2022-10-02T01:13:04.590Z,1.38
2022-10-02T01:15:34.908Z,1.50
2022-10-02T01:18:03.375Z,2.10
2022-10-02T01:20:36.061Z,1.70
2022-10-02T01:23:10.595Z,3.58
2022-10-02T01:25:38.591Z,3.67
2022-10-02T01:28:05.547Z,2.50
2022-10-02T01:30:34.465Z,1.63
2022-10-02T01:33:03.427Z,1.60
2022-10-02T01:35:31.793Z,1.88
2022-10-02T01:37:59.999Z,1.60
2022-10-02T01:40:29.287Z,1.60
2022-10-02T01:43:00.484Z,1.70
2022-10-02T01:45:37.467Z,2.22
2022-10-02T01:48:11.918Z,1.90
2022-10-02T01:50:48.115Z,2.10
2022-10-02T01:53:23.395Z,1.80
2022-10-02T01:55:58.770Z,2.05
2022-10-02T01:58:35.629Z,1.77
2022-10-02T02:01:17.162Z,1.98
2022-10-02T02:03:53.104Z,2.25
2022-10-02T02:06:29.111Z,1.65
2022-10-02T02:09:05.559Z,2.53
2022-10-02T02:11:35.189Z,2.08
2022-10-02T02:14:07.351Z,3.58
2022-10-02T02:16:41.015Z,3.13
2022-10-02T02:19:14.079Z,2.47
2022-10-02T02:21:45.507Z,2.05
2022-10-02T02:24:17.875Z,2.47
2022-10-02T02:26:45.510Z,3.63
2022-10-02T02:29:16.823Z,3.58
2022-10-02T02:31:49.067Z,2.35
2022-10-02T02:34:19.878Z,3.20
2022-10-02T02:36:50.628Z,4.97
2022-10-02T02:39:19.763Z,3.10
2022-10-02T02:41:49.583Z,2.55
2022-10-02T02:44:23.133Z,3.35
2022-10-02T02:46:54.708Z,3.55
2022-10-02T02:49:22.289Z,3.55
2022-10-02T02:51:50.278Z,3.78
2022-10-02T02:54:21.747Z,2.45
2022-10-02T02:56:50.033Z,2.70
2022-10-02T02:59:21.211Z,2.33
2022-10-02T03:01:47.858Z,2.08
2022-10-02T03:04:15.087Z,2.22
2022-10-02T03:06:44.411Z,2.28
2022-10-02T03:09:15.734Z,2.30
2022-10-02T03:11:52.312Z,2.28
2022-10-02T03:14:48.123Z,2.55
2022-10-02T03:17:24.991Z,2.70
2022-10-02T03:19:58.895Z,1.88
2022-10-02T03:22:29.093Z,2.15
2022-10-02T03:25:03.098Z,2.55
2022-10-02T03:27:37.031Z,1.83
2022-10-02T03:30:07.333Z,2.88
2022-10-02T03:32:35.999Z,2.40
2022-10-02T03:35:04.993Z,2.40
2022-10-02T03:37:32.010Z,1.90
2022-10-02T03:39:58.980Z,2.15
2022-10-02T03:42:27.699Z,2.03
2022-10-02T03:44:54.273Z,2.40
2022-10-02T03:47:22.247Z,2.17
2022-10-02T03:49:48.795Z,2.30
2022-10-02T03:52:17.368Z,2.40
2022-10-02T03:54:44.596Z,2.30
2022-10-02T03:57:18.086Z,2.45
2022-10-02T03:59:50.836Z,2.10
2022-10-02T04:02:28.918Z,2.50
2022-10-02T04:05:02.738Z,2.30
2022-10-02T04:07:34.331Z,2.30
2022-10-02T04:10:16.363Z,2.40
2022-10-02T04:15:19.628Z,3.10
2022-10-02T04:17:53.799Z,3.10
2022-10-02T04:20:28.798Z,2.78
2022-10-02T04:23:01.737Z,2.53
2022-10-02T04:25:33.371Z,2.83
2022-10-02T04:28:05.286Z,2.42
2022-10-02T04:30:31.948Z,2.65
2022-10-02T04:33:10.811Z,3.45
2022-10-02T04:35:48.148Z,2.58
2022-10-02T04:38:40.539Z,2.72
2022-10-02T04:41:22.517Z,2.45
2022-10-02T04:44:03.070Z,1.98
2022-10-02T04:46:57.106Z,2.00
2022-10-02T04:49:43.825Z,3.78
2022-10-02T04:52:27.185Z,2.80
2022-10-02T04:55:09.041Z,2.20
2022-10-02T04:57:59.206Z,2.20
2022-10-02T05:00:32.165Z,2.33
2022-10-02T05:03:17.511Z,2.00
2022-10-02T05:06:14.735Z,1.70
2022-10-02T05:08:59.805Z,1.98
2022-10-02T05:11:43.336Z,1.90
2022-10-02T05:14:31.641Z,2.20
2022-10-02T05:17:12.774Z,1.30
2022-10-02T05:19:55.206Z,1.87
2022-10-02T05:22:39.590Z,1.70
2022-10-02T05:25:30.638Z,1.63
2022-10-02T05:28:17.491Z,1.60
2022-10-02T05:30:48.535Z,1.80
2022-10-02T05:33:44.761Z,1.80
2022-10-02T05:36:29.745Z,1.80
2022-10-02T05:39:04.245Z,1.88
2022-10-02T05:41:39.610Z,1.90
2022-10-02T05:44:11.842Z,1.50
2022-10-02T05:46:44.527Z,1.70
2022-10-02T05:49:17.489Z,1.65
2022-10-02T05:51:49.226Z,1.45
2022-10-02T05:54:27.536Z,1.67
2022-10-02T05:56:58.367Z,1.60
2022-10-02T05:59:32.357Z,1.52
2022-10-02T06:02:04.734Z,1.65
2022-10-02T06:04:37.258Z,1.70
2022-10-02T06:07:09.575Z,2.55
2022-10-02T06:09:47.161Z,2.45
2022-10-02T06:12:20.567Z,2.42
2022-10-02T06:14:53.967Z,2.50
2022-10-02T06:17:25.590Z,2.28
2022-10-02T06:20:03.030Z,2.50
2022-10-02T06:22:35.679Z,2.70
2022-10-02T06:27:40.671Z,2.20
2022-10-02T06:30:10.985Z,2.00
2022-10-02T06:32:42.067Z,1.95
2022-10-02T06:35:12.226Z,2.27
2022-10-02T06:37:50.148Z,1.90
2022-10-02T06:40:37.482Z,2.00
2022-10-02T06:43:11.856Z,2.42
2022-10-02T06:45:49.014Z,1.85
2022-10-02T06:48:25.394Z,2.90
2022-10-02T06:50:59.323Z,2.80
2022-10-02T06:53:54.880Z,1.92
2022-10-02T06:56:41.902Z,1.90
2022-10-02T06:59:24.342Z,2.20
2022-10-02T07:02:00.692Z,1.88
2022-10-02T07:04:52.718Z,2.20
2022-10-02T07:07:37.389Z,2.05
2022-10-02T07:10:17.847Z,2.00
2022-10-02T07:13:09.261Z,2.00
2022-10-02T07:15:56.603Z,2.10
2022-10-02T07:18:35.458Z,2.22
2022-10-02T07:21:10.555Z,2.17
2022-10-02T07:23:50.154Z,2.53
2022-10-02T07:26:44.627Z,2.58
2022-10-02T07:29:28.181Z,2.28
2022-10-02T07:32:19.258Z,2.38
2022-10-02T07:34:55.849Z,2.47
2022-10-02T07:37:32.088Z,2.08
2022-10-02T07:40:16.992Z,2.45
2022-10-02T07:42:55.463Z,3.58
2022-10-02T07:45:28.858Z,6.53
2022-10-02T07:48:17.695Z,6.18
2022-10-02T07:50:59.718Z,4.35
2022-10-02T07:55:56.748Z,3.20
2022-10-02T07:58:31.856Z,4.22
2022-10-02T08:01:03.246Z,4.43
2022-10-02T08:03:36.083Z,4.50
2022-10-02T08:06:03.911Z,6.60
2022-10-02T08:08:37.554Z,5.75
2022-10-02T08:11:08.238Z,3.97
2022-10-02T08:13:41.011Z,3.65
2022-10-02T08:16:11.102Z,3.15
2022-10-02T08:18:41.978Z,3.92
2022-10-02T08:21:12.973Z,4.70
2022-10-02T08:23:43.160Z,3.87
2022-10-02T08:26:14.385Z,2.80
2022-10-02T08:28:47.070Z,2.60
2022-10-02T08:31:14.971Z,2.25
2022-10-02T08:33:42.433Z,2.38
2022-10-02T08:36:35.377Z,2.78
2022-10-02T08:39:13.577Z,2.60
2022-10-02T08:42:02.606Z,2.83
2022-10-02T08:44:52.346Z,5.03
2022-10-02T08:48:01.670Z,11.02
2022-10-02T08:51:00.041Z,9.38
2022-10-02T08:53:53.268Z,11.90
2022-10-02T08:56:31.487Z,4.38
2022-10-02T08:59:23.547Z,3.72
2022-10-02T09:02:43.553Z,3.60
2022-10-02T09:05:48.940Z,3.20
2022-10-02T09:08:46.080Z,3.90
2022-10-02T09:11:53.901Z,7.18
2022-10-02T09:14:58.772Z,7.10
2022-10-02T09:17:56.391Z,4.95
2022-10-02T09:21:11.712Z,5.13
2022-10-02T09:24:16.884Z,6.78
2022-10-02T09:27:14.598Z,5.28
2022-10-02T09:30:08.195Z,4.10
2022-10-02T09:33:05.155Z,4.47
2022-10-02T09:35:54.081Z,4.78
2022-10-02T09:39:08.751Z,3.78
2022-10-02T09:42:13.606Z,3.25
2022-10-02T09:45:02.095Z,2.50
2022-10-02T09:47:55.581Z,3.63
2022-10-02T09:50:55.851Z,2.92
2022-10-02T09:54:04.163Z,3.50
2022-10-02T09:56:58.368Z,3.15
2022-10-02T10:00:02.191Z,3.25
2022-10-02T10:03:02.102Z,3.65
2022-10-02T10:05:51.319Z,3.30
2022-10-02T10:08:50.524Z,3.85
2022-10-02T10:11:38.884Z,2.95
2022-10-02T10:14:35.424Z,4.40
2022-10-02T10:17:39.367Z,2.92
2022-10-02T10:20:42.362Z,2.60
2022-10-02T10:23:40.983Z,2.45
2022-10-02T10:26:50.160Z,2.25
2022-10-02T10:29:47.737Z,2.90
2022-10-02T10:32:59.730Z,2.78
2022-10-02T10:35:54.457Z,2.20
2022-10-02T10:38:38.238Z,2.50
2022-10-02T10:41:36.854Z,3.35
2022-10-02T10:44:32.768Z,5.05
2022-10-02T10:47:20.121Z,5.78
2022-10-02T10:50:17.849Z,4.90
2022-10-02T10:53:11.390Z,4.68
2022-10-02T10:55:53.779Z,4.70
2022-10-02T10:58:32.910Z,4.10
2022-10-02T11:01:11.210Z,3.00
2022-10-02T11:03:56.236Z,2.00
2022-10-02T11:06:54.527Z,1.92
2022-10-02T11:09:58.439Z,1.88
2022-10-02T11:12:49.838Z,1.63
2022-10-02T11:15:31.389Z,1.90
2022-10-02T11:18:13.451Z,1.95
2022-10-02T11:23:50.916Z,1.77
2022-10-02T11:26:29.966Z,1.65
2022-10-02T11:29:18.749Z,1.40
2022-10-02T11:32:25.429Z,1.42
2022-10-02T11:35:19.765Z,1.65
2022-10-02T11:38:04.259Z,1.50
2022-10-02T11:40:44.083Z,1.48
2022-10-02T11:43:26.295Z,1.67
2022-10-02T11:46:12.727Z,1.90
2022-10-02T11:49:04.924Z,1.85
2022-10-02T11:54:29.116Z,2.42
2022-10-02T11:57:19.961Z,2.45
2022-10-02T12:00:07.587Z,2.20
2022-10-02T12:02:43.361Z,2.25
2022-10-02T12:05:23.771Z,2.70
2022-10-02T12:08:00.228Z,2.58
2022-10-02T12:10:35.030Z,2.78
2022-10-02T12:13:22.342Z,3.97
2022-10-02T12:16:00.007Z,4.30
2022-10-02T12:18:45.862Z,4.03
2022-10-02T12:21:26.380Z,3.60
2022-10-02T12:24:00.130Z,4.20
2022-10-02T12:26:38.932Z,4.57
2022-10-02T12:29:11.813Z,3.90
2022-10-02T12:31:48.552Z,4.75
2022-10-02T12:34:32.602Z,2.60
2022-10-02T12:37:04.918Z,2.90
2022-10-02T12:39:42.345Z,2.92
2022-10-02T12:42:29.639Z,3.00
2022-10-02T12:45:22.337Z,3.05
2022-10-02T12:48:17.730Z,3.42
2022-10-02T12:51:05.433Z,5.57
2022-10-02T12:54:04.785Z,4.32
2022-10-02T12:56:59.267Z,2.70
2022-10-02T12:59:32.709Z,3.60
2022-10-02T13:02:42.954Z,2.60
2022-10-02T13:05:47.041Z,3.30
2022-10-02T13:08:41.352Z,3.58
2022-10-02T13:11:18.820Z,3.63
2022-10-02T13:14:14.799Z,3.25
2022-10-02T13:17:03.448Z,3.50
2022-10-02T13:19:38.263Z,2.80
2022-10-02T13:22:11.621Z,2.92
2022-10-02T13:24:53.346Z,2.60
2022-10-02T13:27:32.933Z,1.70
2022-10-02T13:30:10.779Z,2.30
2022-10-02T13:32:51.347Z,2.75
2022-10-02T13:35:31.206Z,3.70
2022-10-02T13:38:10.490Z,3.88
2022-10-02T13:40:48.150Z,3.70
2022-10-02T13:43:49.790Z,3.58
2022-10-02T13:46:33.935Z,3.42
2022-10-02T13:49:08.446Z,3.45
2022-10-02T13:51:45.271Z,2.50
2022-10-02T13:54:30.355Z,2.85
2022-10-02T13:57:03.905Z,3.00
2022-10-02T13:59:46.073Z,6.82
2022-10-02T14:02:30.620Z,15.10
2022-10-02T14:05:01.742Z,25.23
2022-10-02T14:07:47.147Z,16.77
2022-10-02T14:10:24.302Z,9.63
2022-10-02T14:13:06.353Z,3.75
2022-10-02T14:18:29.145Z,3.30
2022-10-02T14:21:08.814Z,4.07
2022-10-02T14:23:55.449Z,4.20
2022-10-02T14:26:30.889Z,4.18
2022-10-02T14:29:12.341Z,4.43
2022-10-02T14:32:05.181Z,4.05
2022-10-02T14:34:58.931Z,4.35
2022-10-02T14:37:46.751Z,4.40
2022-10-02T14:40:16.097Z,3.42
2022-10-02T14:43:01.344Z,2.38
2022-10-02T14:45:58.230Z,1.95
2022-10-02T14:48:44.591Z,1.77
2022-10-02T14:51:26.360Z,1.60
2022-10-02T14:54:09.203Z,2.00
2022-10-02T14:56:53.367Z,2.65
2022-10-02T14:59:47.783Z,2.40
2022-10-02T15:02:34.260Z,2.70
2022-10-02T15:05:13.061Z,2.90
2022-10-02T15:07:40.341Z,2.45
2022-10-02T15:10:16.334Z,3.40
2022-10-02T15:12:49.920Z,3.30
2022-10-02T15:15:22.469Z,2.50
2022-10-02T15:17:59.379Z,2.72
2022-10-02T15:20:49.358Z,3.50
2022-10-02T15:23:38.114Z,5.10
2022-10-02T15:26:23.784Z,2.63
2022-10-02T15:29:05.515Z,3.55
2022-10-02T15:31:40.834Z,3.50
2022-10-02T15:34:19.285Z,3.97
2022-10-02T15:37:00.366Z,4.90
2022-10-02T15:39:53.372Z,3.45
2022-10-02T15:42:38.539Z,3.08
2022-10-02T15:45:21.272Z,3.63
2022-10-02T15:48:01.743Z,3.40
2022-10-02T15:50:44.283Z,2.42
2022-10-02T15:53:34.893Z,3.42
2022-10-02T15:56:19.944Z,2.45
2022-10-02T15:59:10.084Z,2.47
2022-10-02T16:01:49.554Z,2.03
2022-10-02T16:04:25.769Z,1.80
2022-10-02T16:07:36.959Z,3.90
2022-10-02T16:10:19.160Z,2.30
2022-10-02T16:13:01.361Z,2.00
2022-10-02T16:15:32.300Z,2.05
2022-10-02T16:18:21.358Z,2.33
2022-10-02T16:21:20.526Z,4.07
2022-10-02T16:24:11.304Z,4.63
2022-10-02T16:27:07.149Z,14.15
2022-10-02T16:29:42.948Z,6.15
2022-10-02T16:32:20.431Z,3.58
2022-10-02T16:35:10.004Z,3.60
2022-10-02T16:37:44.152Z,5.45
2022-10-02T16:40:22.863Z,6.60
2022-10-02T16:42:53.199Z,7.63
2022-10-02T16:45:49.446Z,8.25
2022-10-02T16:48:21.091Z,9.52
2022-10-02T16:51:07.470Z,10.02
2022-10-02T16:53:40.223Z,8.98
2022-10-02T16:56:11.182Z,6.82
2022-10-02T16:58:45.111Z,5.00
2022-10-02T17:01:34.621Z,4.82
2022-10-02T17:04:23.983Z,4.40
2022-10-02T17:06:57.967Z,4.65
2022-10-02T17:09:32.376Z,5.97
2022-10-02T17:12:07.821Z,5.20
2022-10-02T17:14:42.823Z,4.03
2022-10-02T17:17:18.800Z,4.07
2022-10-02T17:19:51.112Z,4.18
2022-10-02T17:22:27.392Z,4.22
2022-10-02T17:25:04.073Z,4.00
2022-10-02T17:27:44.997Z,3.80
2022-10-02T17:30:19.110Z,5.85
2022-10-02T17:32:54.803Z,4.93
2022-10-02T17:35:38.999Z,4.20
2022-10-02T17:38:46.948Z,4.75
2022-10-02T17:41:32.938Z,4.38
2022-10-02T17:44:10.946Z,3.40
2022-10-02T17:47:16.826Z,3.22
2022-10-02T17:49:54.569Z,3.67
2022-10-02T17:52:30.395Z,3.28
2022-10-02T17:55:14.037Z,3.50
2022-10-02T17:57:53.643Z,3.80
2022-10-02T18:00:23.003Z,3.33
2022-10-02T18:03:09.011Z,3.05
2022-10-02T18:05:49.617Z,2.88
2022-10-02T18:08:32.123Z,3.42
2022-10-02T18:11:05.713Z,2.95
2022-10-02T18:13:44.208Z,2.95
2022-10-02T18:16:30.599Z,2.60
2022-10-02T18:19:25.902Z,2.65
2022-10-02T18:22:06.407Z,3.65
2022-10-02T18:24:52.150Z,3.53
2022-10-02T18:27:35.805Z,3.70
2022-10-02T18:30:11.977Z,3.45
2022-10-02T18:33:03.282Z,3.05
2022-10-02T18:35:45.182Z,2.83
2022-10-02T18:38:20.750Z,3.17
2022-10-02T18:40:54.348Z,3.60
2022-10-02T18:43:51.994Z,5.00
2022-10-02T18:46:39.278Z,4.32
2022-10-02T18:49:29.063Z,3.35
2022-10-02T18:52:30.349Z,3.35
2022-10-02T18:55:08.539Z,2.58
2022-10-02T18:57:46.697Z,3.45
2022-10-02T19:00:17.900Z,3.17
2022-10-02T19:03:03.547Z,2.70
2022-10-02T19:05:34.102Z,3.05
2022-10-02T19:08:23.882Z,4.13
2022-10-02T19:10:50.480Z,3.80
2022-10-02T19:13:26.533Z,2.92
2022-10-02T19:15:54.922Z,2.53
2022-10-02T19:18:23.290Z,2.20
2022-10-02T19:20:57.871Z,2.50
2022-10-02T19:23:32.503Z,2.38
2022-10-02T19:26:04.658Z,2.40
2022-10-02T19:28:33.775Z,2.10
2022-10-02T19:31:03.455Z,2.17
2022-10-02T19:33:41.380Z,2.80
2022-10-02T19:36:15.912Z,2.25
2022-10-02T19:38:44.839Z,2.30
2022-10-02T19:41:15.077Z,2.45
2022-10-02T19:43:49.724Z,2.05
2022-10-02T19:46:17.143Z,2.40
2022-10-02T19:48:43.980Z,2.22
2022-10-02T19:51:19.548Z,2.17
2022-10-02T19:53:50.500Z,2.10
2022-10-02T19:56:22.622Z,1.83
2022-10-02T19:58:51.026Z,2.22
2022-10-02T20:01:20.006Z,2.33
2022-10-02T20:03:48.484Z,2.10
2022-10-02T20:06:22.110Z,1.90
2022-10-02T20:08:53.663Z,2.20
2022-10-02T20:11:26.673Z,4.22
2022-10-02T20:13:56.636Z,1.80
2022-10-02T20:16:24.753Z,2.95
2022-10-02T20:18:52.231Z,4.13
2022-10-02T20:21:36.402Z,2.88
2022-10-02T20:24:05.853Z,2.47
2022-10-02T20:26:37.718Z,2.80
2022-10-02T20:31:40.466Z,2.40
2022-10-02T20:34:12.632Z,3.03
2022-10-02T20:36:51.099Z,2.70
2022-10-02T20:39:22.987Z,3.15
2022-10-02T20:44:20.428Z,4.80
2022-10-02T20:47:17.894Z,6.82
2022-10-02T20:50:13.406Z,5.65
2022-10-02T20:53:18.269Z,5.10
2022-10-02T20:55:50.831Z,2.95
2022-10-02T20:58:40.857Z,3.30
2022-10-02T21:01:16.961Z,2.70
2022-10-02T21:04:13.344Z,2.67
2022-10-02T21:06:54.386Z,2.63
2022-10-02T21:09:53.543Z,2.88
2022-10-02T21:12:56.869Z,2.78
2022-10-02T21:15:50.831Z,2.97
2022-10-02T21:18:49.782Z,3.00
2022-10-02T21:21:42.242Z,2.80
2022-10-02T21:24:31.424Z,2.65
2022-10-02T21:27:20.773Z,2.42
2022-10-02T21:30:07.495Z,3.00
2022-10-02T21:32:42.563Z,2.78
2022-10-02T21:35:14.075Z,2.97
2022-10-02T21:37:55.550Z,3.00
2022-10-02T21:40:49.722Z,2.60
2022-10-02T21:43:54.948Z,2.75
2022-10-02T21:46:51.344Z,2.80
2022-10-02T21:49:45.267Z,2.63
2022-10-02T21:52:40.615Z,2.30
2022-10-02T21:55:41.743Z,2.80
2022-10-02T21:58:41.921Z,3.17
2022-10-02T22:01:42.672Z,2.58
2022-10-02T22:04:47.738Z,2.90
2022-10-02T22:07:20.936Z,2.47
2022-10-02T22:09:54.518Z,3.03
2022-10-02T22:12:31.665Z,3.20
2022-10-02T22:15:09.791Z,2.50
2022-10-02T22:17:49.856Z,2.88
2022-10-02T22:20:32.873Z,2.20
2022-10-02T22:23:13.231Z,3.42
2022-10-02T22:25:56.321Z,2.53
2022-10-02T22:28:29.529Z,3.10
2022-10-02T22:31:31.465Z,2.85
2022-10-02T22:34:09.438Z,2.60
2022-10-02T22:37:11.611Z,3.00
2022-10-02T22:39:45.531Z,2.60
2022-10-02T22:42:18.906Z,3.03
2022-10-02T22:44:50.982Z,2.72
2022-10-02T22:47:27.505Z,4.25
2022-10-02T22:49:58.969Z,2.97
2022-10-02T22:52:30.328Z,2.80
2022-10-02T22:55:05.443Z,3.35
2022-10-02T22:57:40.052Z,2.47
2022-10-02T23:00:15.516Z,3.20
2022-10-02T23:02:49.938Z,2.90
2022-10-02T23:05:25.664Z,2.30
2022-10-02T23:08:00.154Z,2.50
2022-10-02T23:10:32.412Z,3.17
2022-10-02T23:13:05.970Z,2.58
2022-10-02T23:15:50.205Z,2.67
2022-10-02T23:18:28.746Z,4.10
2022-10-02T23:21:02.426Z,3.20
2022-10-02T23:23:33.493Z,2.83
2022-10-02T23:26:04.608Z,2.50
2022-10-02T23:28:37.629Z,2.58
2022-10-02T23:31:12.349Z,2.80
2022-10-02T23:33:51.333Z,2.65
2022-10-02T23:36:23.603Z,2.70
2022-10-02T23:38:57.108Z,2.40
2022-10-02T23:41:25.323Z,2.90
2022-10-02T23:44:02.960Z,2.80
2022-10-02T23:46:35.542Z,2.92
2022-10-02T23:49:03.775Z,2.80
2022-10-02T23:51:43.600Z,2.50
2022-10-02T23:54:30.840Z,2.80
2022-10-02T23:57:39.335Z,2.75
